Time;durP1;ratioP1;P1;durP2;ratioP2;P2;SDS_P1;SDS_P2;PMS_P1;PMS_P2;Temp;Humidity;BMP_temperature;BMP_pressure;BME280_temperature;BME280_humidity;BME280_pressure;Samples;Min_cycle;Max_cycle;Signal;HPM_P1;HPM_P2
2022/05/26 00:00:47;;;;;;;7.32;0.90;;;;;;;16.29;79.40;101416.25;7391457;19;20014;-66
2022/05/26 00:03:14;;;;;;;8.73;1.45;;;;;;;16.16;78.85;101416.81;7388819;19;20011;-66
2022/05/26 00:05:41;;;;;;;10.93;0.60;;;;;;;16.11;79.41;101425.28;7390368;19;20022;-67
2022/05/26 00:08:08;;;;;;;7.25;0.55;;;;;;;16.10;79.52;101423.63;7392449;19;20020;-69
2022/05/26 00:10:35;;;;;;;8.13;0.73;;;;;;;16.12;79.49;101426.97;7391117;19;20747;-69
2022/05/26 00:13:04;;;;;;;6.22;0.60;;;;;;;16.13;79.21;101425.13;7389744;19;20015;-67
2022/05/26 00:15:32;;;;;;;5.95;0.40;;;;;;;16.11;79.60;101433.25;7389072;19;20011;-69
2022/05/26 00:17:58;;;;;;;7.30;0.70;;;;;;;16.07;79.28;101431.13;7389425;19;20017;-69
2022/05/26 00:20:25;;;;;;;10.82;1.83;;;;;;;16.08;80.22;101432.78;7389369;19;20018;-69
2022/05/26 00:22:52;;;;;;;8.07;0.70;;;;;;;16.03;80.19;101435.13;7389826;19;20426;-68
2022/05/26 00:25:19;;;;;;;6.97;0.60;;;;;;;16.02;80.21;101433.47;7393975;19;20086;-67
2022/05/26 00:27:46;;;;;;;6.70;0.70;;;;;;;16.03;80.18;101432.47;7391635;19;20369;-66
2022/05/26 00:30:20;;;;;;;8.80;1.13;;;;;;;16.07;81.07;101439.09;7389988;19;20039;-67
2022/05/26 00:32:47;;;;;;;8.50;0.70;;;;;;;16.06;79.84;101442.75;7389662;19;20010;-67
2022/05/26 00:35:15;;;;;;;9.75;0.70;;;;;;;16.02;79.77;101444.94;7388054;19;20010;-68
2022/05/26 00:37:43;;;;;;;6.90;0.80;;;;;;;15.98;79.63;101450.75;7390655;19;20041;-68
2022/05/26 00:40:24;;;;;;;10.50;1.83;;;;;;;15.94;79.93;101450.28;7389297;19;20098;-68
2022/05/26 00:42:51;;;;;;;9.68;0.73;;;;;;;15.94;81.13;101446.81;7390802;19;20389;-69
2022/05/26 00:45:18;;;;;;;12.18;1.15;;;;;;;15.95;80.72;101451.91;7388399;19;20138;-69
2022/05/26 00:47:47;;;;;;;9.27;0.57;;;;;;;15.93;80.22;101461.06;7387412;19;20090;-70
2022/05/26 00:50:37;;;;;;;8.20;0.70;;;;;;;15.84;80.05;101460.28;7392852;19;20017;-67
2022/05/26 00:53:12;;;;;;;17.25;0.98;;;;;;;15.78;80.49;101456.47;7390313;19;20448;-67
2022/05/26 00:55:43;;;;;;;8.98;1.55;;;;;;;15.70;80.78;101461.78;7389158;19;20015;-68
2022/05/26 00:58:17;;;;;;;11.85;1.10;;;;;;;15.70;81.25;101451.19;7390748;19;20014;-67
2022/05/26 01:00:45;;;;;;;8.25;0.63;;;;;;;15.71;81.26;101459.97;7388393;19;20021;-69
2022/05/26 01:03:36;;;;;;;10.77;0.70;;;;;;;15.71;81.07;101473.25;7385762;19;20340;-67
2022/05/26 01:06:36;;;;;;;7.15;1.67;;;;;;;15.65;81.57;101471.25;7388271;19;20014;-66
2022/05/26 01:09:05;;;;;;;12.00;0.80;;;;;;;15.67;81.86;101467.44;7389826;19;20015;-68
2022/05/26 01:11:36;;;;;;;14.18;1.02;;;;;;;15.67;81.36;101475.41;7393155;19;20340;-69
2022/05/26 01:14:24;;;;;;;5.55;0.50;;;;;;;15.63;80.97;101478.56;7387480;19;20006;-69
2022/05/26 01:17:34;;;;;;;6.20;3.05;;;;;;;15.57;81.48;101474.78;7388076;19;20362;-68
2022/05/26 01:20:31;;;;;;;8.18;0.77;;;;;;;15.63;82.92;101479.41;7391365;19;20401;-66
2022/05/26 01:23:28;;;;;;;7.13;0.68;;;;;;;15.61;81.58;101476.09;7387574;19;20475;-67
2022/05/26 01:26:28;;;;;;;7.18;0.73;;;;;;;15.60;81.50;101473.59;7390439;19;20515;-67
2022/05/26 01:29:11;;;;;;;10.40;0.90;;;;;;;15.57;81.53;101479.25;7390570;19;20018;-67
2022/05/26 01:32:08;;;;;;;17.63;1.73;;;;;;;15.60;82.37;101482.38;7388538;19;20015;-69
2022/05/26 01:35:18;;;;;;;11.05;0.68;;;;;;;15.63;82.14;101475.94;7385146;19;20277;-68
2022/05/26 01:37:54;;;;;;;14.48;0.80;;;;;;;15.65;82.02;101489.84;7388298;19;20011;-68
2022/05/26 01:40:58;;;;;;;9.45;1.00;;;;;;;15.61;81.63;101477.91;7390877;19;20010;-66
2022/05/26 01:43:33;;;;;;;12.02;3.38;;;;;;;15.56;81.90;101485.53;7389670;19;20022;-69
2022/05/26 01:46:13;;;;;;;7.75;0.77;;;;;;;15.56;82.60;101478.41;7384083;19;20447;-69
2022/05/26 01:48:43;;;;;;;9.50;0.85;;;;;;;15.55;82.04;101484.72;7388278;19;20130;-68
2022/05/26 01:51:20;;;;;;;7.15;0.93;;;;;;;15.53;81.81;101481.41;7387755;19;20043;-67
2022/05/26 01:54:09;;;;;;;7.60;0.50;;;;;;;15.46;81.40;101479.56;7386928;19;20074;-69
2022/05/26 01:56:52;;;;;;;11.98;1.02;;;;;;;15.40;81.86;101484.53;7389089;19;20011;-67
2022/05/26 01:59:29;;;;;;;9.38;0.93;;;;;;;15.41;83.09;101495.97;7389885;19;20015;-66
2022/05/26 02:02:06;;;;;;;8.98;0.80;;;;;;;15.37;82.55;101489.38;7388290;19;20422;-68
2022/05/26 02:04:37;;;;;;;7.20;0.77;;;;;;;15.37;82.46;101487.53;7385515;19;20018;-68
2022/05/26 02:07:14;;;;;;;11.20;1.00;;;;;;;15.37;82.40;101490.19;7388092;19;20486;-69
2022/05/26 02:09:43;;;;;;;9.80;0.70;;;;;;;15.35;82.34;101489.53;7391665;19;20016;-68
2022/05/26 02:12:25;;;;;;;11.82;0.95;;;;;;;15.34;82.95;101493.16;7387188;19;20037;-67
2022/05/26 02:15:05;;;;;;;11.50;1.17;;;;;;;15.33;82.48;101494.19;7385149;19;20340;-68
2022/05/26 02:17:34;;;;;;;;;;;;;;;15.37;82.51;101507.94;7386045;19;20082;-69
2022/05/26 02:20:12;;;;;;;5.93;1.17;;;;;;;15.32;82.50;101513.75;7388737;19;19982;-71
2022/05/26 02:22:51;;;;;;;8.20;0.95;;;;;;;15.27;82.61;101508.09;7389198;19;20474;-69
2022/05/26 02:25:21;;;;;;;11.80;1.65;;;;;;;15.27;83.52;101512.56;7388981;19;20025;-69
2022/05/26 02:27:51;;;;;;;4.65;0.60;;;;;;;15.30;84.12;101498.97;7384349;19;20014;-66
2022/05/26 02:30:22;;;;;;;9.30;0.63;;;;;;;15.30;82.95;101499.81;7387360;19;20017;-67
2022/05/26 02:32:52;;;;;;;9.43;1.23;;;;;;;15.28;82.70;101512.41;7386018;19;20523;-70
2022/05/26 02:35:26;;;;;;;12.10;0.70;;;;;;;15.29;83.10;101514.06;7387006;19;20089;-67
2022/05/26 02:37:58;;;;;;;6.22;1.30;;;;;;;15.28;82.75;101509.75;7390736;19;20078;-70
2022/05/26 02:40:25;;;;;;;11.25;1.00;;;;;;;15.23;83.15;101511.25;7390804;19;20074;-66
2022/05/26 02:42:57;;;;;;;4.53;0.70;;;;;;;15.23;83.05;101513.91;7385487;19;20019;-70
2022/05/26 02:46:05;;;;;;;10.40;0.80;;;;;;;15.19;82.72;101512.56;7385005;19;20040;-68
2022/05/26 02:48:37;;;;;;;;;;;;;;;15.15;82.88;101517.38;7386258;19;20050;-67
2022/05/26 02:51:14;;;;;;;9.25;0.68;;;;;;;15.10;83.20;101522.34;7389758;19;19915;-68
2022/05/26 02:53:48;;;;;;;11.00;3.17;;;;;;;15.04;83.10;101524.81;7386523;19;20002;-65
2022/05/26 02:56:55;;;;;;;7.45;1.13;;;;;;;14.99;83.64;101526.16;7385485;19;20042;-70
2022/05/26 03:00:10;;;;;;;10.57;0.82;;;;;;;15.01;83.76;101525.16;7396849;19;20022;-67
2022/05/26 03:02:57;;;;;;;5.32;0.70;;;;;;;15.02;83.57;101521.53;7392849;19;20011;-67
2022/05/26 03:05:43;;;;;;;9.93;0.70;;;;;;;14.99;83.61;101527.97;7391037;19;20086;-68
2022/05/26 03:08:15;;;;;;;10.05;0.60;;;;;;;14.94;83.34;101531.09;7395086;19;20010;-68
2022/05/26 03:10:52;;;;;;;8.70;0.85;;;;;;;14.99;83.78;101542.03;7392532;19;20006;-68
2022/05/26 03:13:19;;;;;;;12.65;1.02;;;;;;;15.03;83.98;101539.09;7393972;19;20514;-68
2022/05/26 03:15:46;;;;;;;8.32;0.90;;;;;;;15.04;83.65;101540.72;7392663;19;20098;-68
2022/05/26 03:18:13;;;;;;;4.75;0.60;;;;;;;14.98;82.82;101540.38;7392359;19;20019;-68
2022/05/26 03:20:40;;;;;;;12.77;0.88;;;;;;;14.95;83.36;101540.72;7394395;19;20508;-67
2022/05/26 03:23:07;;;;;;;15.30;3.72;;;;;;;14.89;83.00;101535.22;7394740;19;20011;-69
2022/05/26 03:25:34;;;;;;;6.13;0.85;;;;;;;14.86;83.86;101539.06;7390629;19;20007;-67
2022/05/26 03:28:00;;;;;;;7.53;0.90;;;;;;;14.89;84.10;101535.22;7392384;19;20323;-67
2022/05/26 03:30:27;;;;;;;7.22;0.57;;;;;;;14.91;83.39;101534.09;7395541;19;20007;-68
2022/05/26 03:32:54;;;;;;;6.35;0.90;;;;;;;14.95;83.58;101535.41;7390717;19;20027;-69
2022/05/26 03:40:54;;;;;;;6.70;1.00;;;;;;;15.02;83.11;101546.19;7392275;19;20033;-68
2022/05/26 03:43:42;;;;;;;3.50;0.50;;;;;;;15.00;82.69;101545.53;7388981;19;20007;-65
2022/05/26 03:46:10;;;;;;;8.77;1.10;;;;;;;14.89;82.29;101546.66;7391555;19;20082;-68
2022/05/26 03:48:40;;;;;;;7.20;0.80;;;;;;;14.81;82.86;101543.19;7394001;19;20564;-67
2022/05/26 03:51:08;;;;;;;6.65;0.80;;;;;;;14.76;83.33;101535.72;7394214;19;20007;-68
2022/05/26 03:53:35;;;;;;;9.00;0.70;;;;;;;14.81;83.96;101538.72;7390801;19;20007;-68
2022/05/26 03:56:04;;;;;;;6.78;0.60;;;;;;;14.85;83.60;101544.50;7391071;19;20014;-68
2022/05/26 03:58:32;;;;;;;7.55;0.60;;;;;;;14.84;82.87;101553.44;7394900;19;20025;-68
2022/05/26 04:01:04;;;;;;;11.15;1.00;;;;;;;14.78;82.48;101554.13;7391377;19;20415;-68
2022/05/26 04:03:31;;;;;;;3.75;0.65;;;;;;;14.72;82.95;101563.53;7389864;19;20509;-69
2022/05/26 04:05:58;;;;;;;4.15;0.50;;;;;;;14.70;83.09;101560.22;7391275;19;20010;-68
2022/05/26 04:08:25;;;;;;;7.63;1.00;;;;;;;14.75;83.87;101565.84;7392789;19;20006;-68
2022/05/26 04:10:52;;;;;;;5.18;0.70;;;;;;;14.76;83.47;101571.97;7390027;19;20006;-66
2022/05/26 04:13:19;;;;;;;6.95;0.68;;;;;;;14.73;82.95;101567.81;7390016;19;20530;-70
2022/05/26 04:15:52;;;;;;;6.70;0.70;;;;;;;14.70;82.87;101584.06;7392031;19;20018;-68
2022/05/26 04:18:19;;;;;;;12.68;0.60;;;;;;;14.66;83.22;101573.94;7389800;19;20019;-69
2022/05/26 04:20:46;;;;;;;7.63;0.85;;;;;;;14.65;83.27;101580.22;7389620;19;20014;-67
2022/05/26 04:23:13;;;;;;;6.43;0.80;;;;;;;14.64;83.29;101583.84;7391212;19;20010;-66
2022/05/26 04:25:39;;;;;;;4.75;1.08;;;;;;;14.62;83.62;101577.91;7389864;19;20014;-68
2022/05/26 04:28:06;;;;;;;8.15;0.60;;;;;;;14.64;83.73;101587.34;7390525;19;20010;-67
2022/05/26 04:30:33;;;;;;;5.40;0.50;;;;;;;14.62;83.52;101578.75;7392267;19;20020;-67
2022/05/26 04:33:00;;;;;;;9.35;0.85;;;;;;;14.63;83.29;101577.72;7389528;19;20027;-68
2022/05/26 04:35:34;;;;;;;9.13;1.10;;;;;;;14.63;83.21;101580.38;7392574;19;20066;-67
2022/05/26 04:38:01;;;;;;;7.47;1.35;;;;;;;14.63;83.52;101593.63;7391404;19;20015;-69
2022/05/26 04:40:28;;;;;;;5.47;0.82;;;;;;;14.63;83.46;101593.63;7387914;19;20014;-67
2022/05/26 04:42:55;;;;;;;5.22;0.75;;;;;;;14.65;83.24;101591.66;7390369;19;20022;-68
2022/05/26 04:45:22;;;;;;;9.93;0.93;;;;;;;14.65;83.20;101596.13;7388456;19;20014;-67
2022/05/26 04:47:49;;;;;;;6.97;0.73;;;;;;;14.68;83.47;101603.75;7388730;19;20563;-67
2022/05/26 04:50:16;;;;;;;9.02;0.57;;;;;;;14.71;83.09;101601.63;7386904;19;20011;-67
2022/05/26 04:52:42;;;;;;;8.20;1.10;;;;;;;14.66;82.84;101606.56;7388850;19;20085;-67
2022/05/26 04:55:11;;;;;;;9.65;0.90;;;;;;;14.62;83.31;101607.88;7388341;19;20015;-67
2022/05/26 04:57:38;;;;;;;9.43;0.65;;;;;;;14.63;83.40;101614.00;7392806;19;20033;-66
2022/05/26 05:00:10;;;;;;;7.28;0.60;;;;;;;14.64;83.20;101608.53;7387513;19;20347;-66
2022/05/26 05:02:37;;;;;;;6.90;0.50;;;;;;;14.64;83.26;101610.34;7391509;19;20021;-66
2022/05/26 05:05:06;;;;;;;6.72;0.60;;;;;;;14.65;83.27;101610.19;7386969;19;20025;-66
2022/05/26 05:07:33;;;;;;;5.20;0.90;;;;;;;14.70;83.94;101615.00;7390022;19;20037;-65
2022/05/26 05:10:04;;;;;;;4.93;0.90;;;;;;;14.70;83.79;101609.72;7387696;19;20011;-67
2022/05/26 05:12:36;;;;;;;7.93;0.82;;;;;;;14.75;83.36;101602.94;7388317;19;20712;-66
2022/05/26 05:15:11;;;;;;;7.80;1.00;;;;;;;14.76;82.97;101609.91;7389288;19;20014;-67
2022/05/26 05:17:38;;;;;;;6.25;0.60;;;;;;;14.77;82.93;101613.38;7390250;19;20197;-68
2022/05/26 05:20:05;;;;;;;8.45;0.70;;;;;;;14.76;82.83;101607.25;7387984;19;20024;-67
2022/05/26 05:22:52;;;;;;;6.50;0.77;;;;;;;14.74;83.61;101601.28;7386510;19;20014;-69
2022/05/26 05:25:24;;;;;;;6.13;0.90;;;;;;;14.72;83.56;101605.09;7386505;19;20110;-67
2022/05/26 05:27:54;;;;;;;7.30;0.70;;;;;;;14.73;83.41;101601.47;7388184;19;20018;-67
2022/05/26 05:30:26;;;;;;;7.70;0.60;;;;;;;14.75;83.10;101613.53;7392082;19;20481;-69
2022/05/26 05:33:05;;;;;;;10.77;0.57;;;;;;;14.76;83.25;101622.31;7388044;19;20018;-66
2022/05/26 05:35:40;;;;;;;7.13;1.40;;;;;;;14.74;83.07;101630.41;7388012;19;20014;-66
2022/05/26 05:38:07;;;;;;;8.23;0.70;;;;;;;14.78;83.78;101625.66;7387742;19;20036;-67
2022/05/26 05:40:35;;;;;;;9.10;1.50;;;;;;;14.80;83.65;101627.13;7391624;19;20610;-68
2022/05/26 05:43:02;;;;;;;5.95;0.60;;;;;;;14.86;83.08;101629.16;7387458;19;20429;-67
2022/05/26 05:45:29;;;;;;;5.88;0.60;;;;;;;14.90;83.04;101634.94;7388069;19;20010;-69
2022/05/26 05:47:56;;;;;;;7.03;0.70;;;;;;;14.95;82.58;101641.44;7387261;19;20079;-68
2022/05/26 05:50:23;;;;;;;6.70;0.52;;;;;;;14.95;82.31;101638.78;7390837;19;20089;-65
2022/05/26 05:52:50;;;;;;;8.52;0.65;;;;;;;14.98;82.64;101649.03;7389897;19;20014;-67
2022/05/26 05:55:17;;;;;;;6.57;0.57;;;;;;;14.97;82.36;101646.56;7387676;19;20034;-66
2022/05/26 05:57:44;;;;;;;7.57;0.60;;;;;;;15.03;82.61;101656.53;7387161;19;20322;-67
2022/05/26 06:00:12;;;;;;;4.60;0.60;;;;;;;15.05;81.88;101657.19;7389563;19;20018;-66
2022/05/26 06:02:39;;;;;;;8.52;0.60;;;;;;;15.07;82.31;101649.09;7384787;19;20074;-67
2022/05/26 06:05:07;;;;;;;7.28;0.80;;;;;;;15.10;81.91;101657.53;7385476;19;20034;-66
2022/05/26 06:07:34;;;;;;;6.28;0.60;;;;;;;15.16;82.75;101651.59;7388676;19;20010;-69
2022/05/26 06:10:03;;;;;;;8.05;0.70;;;;;;;15.22;82.41;101664.22;7386754;19;20013;-70
2022/05/26 06:12:38;;;;;;;4.43;0.70;;;;;;;15.33;81.94;101669.22;7388263;19;20049;-68
2022/05/26 06:15:06;;;;;;;9.07;0.60;;;;;;;15.44;81.32;101668.03;7386483;19;20014;-68
2022/05/26 06:17:33;;;;;;;8.70;0.60;;;;;;;15.52;80.80;101662.78;7387236;19;20022;-69
2022/05/26 06:20:00;;;;;;;6.68;0.50;;;;;;;15.54;80.70;101662.63;7386910;19;20006;-69
2022/05/26 06:22:29;;;;;;;7.28;0.63;;;;;;;15.57;81.41;101664.94;7387955;19;20015;-67
2022/05/26 06:24:56;;;;;;;2.75;0.50;;;;;;;15.64;81.27;101665.97;7384925;19;20050;-66
2022/05/26 06:30:13;;;;;;;10.05;0.80;;;;;;;15.63;79.96;101666.94;7385870;19;20032;-67
2022/05/26 06:38:43;;;;;;;5.70;0.70;;;;;;;15.71;81.12;101678.38;7394094;19;20448;-69
2022/05/26 06:44:00;;;;;;;7.32;0.60;;;;;;;15.77;79.89;101679.56;7394843;19;20334;-69
2022/05/26 06:46:26;;;;;;;7.88;0.85;;;;;;;15.79;79.88;101674.94;7395606;19;20074;-69
2022/05/26 06:48:53;;;;;;;10.02;1.48;;;;;;;15.87;80.06;101684.69;7390042;19;20082;-67
2022/05/26 06:51:22;;;;;;;9.73;1.27;;;;;;;15.86;79.28;101688.34;7393376;19;20022;-69
2022/05/26 06:53:49;;;;;;;5.97;0.80;;;;;;;15.89;79.65;101696.00;7394250;19;20042;-67
2022/05/26 06:56:16;;;;;;;6.28;0.88;;;;;;;15.93;79.22;101692.00;7394686;19;20017;-68
2022/05/26 06:58:43;;;;;;;7.22;0.75;;;;;;;15.97;79.28;101683.53;7395520;19;20034;-70
2022/05/26 07:01:14;;;;;;;8.98;0.85;;;;;;;16.05;79.32;101688.03;7397507;19;20017;-68
2022/05/26 07:03:42;;;;;;;8.15;0.70;;;;;;;16.11;79.26;101693.47;7394225;19;20130;-68
2022/05/26 07:06:14;;;;;;;10.48;0.77;;;;;;;16.18;79.01;101691.81;7392795;19;20365;-67
2022/05/26 07:08:41;;;;;;;10.25;1.02;;;;;;;16.24;78.81;101695.63;7392694;19;20007;-68
2022/05/26 07:11:08;;;;;;;4.93;0.80;;;;;;;16.29;78.14;101693.31;7393481;19;20331;-66
2022/05/26 07:13:35;;;;;;;7.70;1.05;;;;;;;16.33;77.95;101693.78;7391972;19;20029;-67
2022/05/26 07:16:02;;;;;;;5.40;0.70;;;;;;;16.38;77.79;101694.09;7394302;19;20018;-68
2022/05/26 07:18:29;;;;;;;7.03;1.23;;;;;;;16.43;77.62;101679.31;7391992;19;20086;-67
2022/05/26 07:20:57;;;;;;;5.65;0.63;;;;;;;16.45;77.23;101690.63;7393754;19;20071;-66
2022/05/26 07:23:24;;;;;;;8.23;0.70;;;;;;;16.51;77.42;101687.25;7390952;19;20025;-68
2022/05/26 07:25:50;;;;;;;5.00;0.63;;;;;;;16.60;77.79;101690.78;7392187;19;20018;-70
2022/05/26 07:28:17;;;;;;;4.55;0.70;;;;;;;16.64;75.61;101692.09;7394337;19;20011;-66
2022/05/26 07:30:44;;;;;;;3.38;0.50;;;;;;;16.70;75.64;101696.72;7391323;19;20023;-66
2022/05/26 07:33:11;;;;;;;9.57;0.63;;;;;;;16.78;75.14;101703.81;7393810;19;20638;-66
2022/05/26 07:35:38;;;;;;;5.35;0.40;;;;;;;16.84;75.16;101700.47;7389254;19;20006;-67
2022/05/26 07:43:38;;;;;;;3.35;0.55;;;;;;;16.91;74.09;101704.97;7390056;19;20010;-69
2022/05/26 07:46:08;;;;;;;5.53;0.40;;;;;;;16.94;74.39;101709.91;7389652;19;20021;-66
2022/05/26 07:48:35;;;;;;;6.53;0.50;;;;;;;16.93;74.22;101702.09;7391457;19;20014;-70
2022/05/26 07:51:02;;;;;;;7.38;0.60;;;;;;;16.92;73.84;101708.41;7392588;19;20496;-67
2022/05/26 07:53:29;;;;;;;3.45;0.30;;;;;;;16.91;74.01;101699.63;7389094;19;20039;-66
2022/05/26 07:55:56;;;;;;;6.43;0.35;;;;;;;16.95;73.26;101706.25;7391106;19;20010;-69
2022/05/26 07:58:25;;;;;;;6.93;0.55;;;;;;;17.00;74.20;101697.78;7390767;19;20066;-69
2022/05/26 08:00:53;;;;;;;2.67;0.40;;;;;;;17.01;72.93;101702.09;7390320;19;20407;-67
2022/05/26 08:03:21;;;;;;;5.85;0.40;;;;;;;17.05;73.93;101708.72;7388846;19;20130;-65
2022/05/26 08:05:48;;;;;;;3.38;0.40;;;;;;;17.16;77.61;101702.19;7393134;19;20421;-71
2022/05/26 08:08:15;;;;;;;6.63;0.95;;;;;;;17.27;78.00;101710.56;7394719;19;20014;-68
2022/05/26 08:10:42;;;;;;;1.75;0.30;;;;;;;17.23;74.27;101706.63;7391528;19;20109;-70
2022/05/26 08:13:12;;;;;;;6.07;0.50;;;;;;;17.23;73.45;101719.09;7390580;19;20006;-68
2022/05/26 08:15:39;;;;;;;4.57;0.30;;;;;;;17.24;72.94;101721.56;7390020;19;20014;-70
2022/05/26 08:18:06;;;;;;;5.10;0.50;;;;;;;17.28;73.40;101722.06;7389445;19;20011;-69
2022/05/26 08:20:33;;;;;;;5.05;0.43;;;;;;;17.28;73.01;101727.38;7387940;19;20006;-69
2022/05/26 08:23:01;;;;;;;5.20;0.50;;;;;;;17.29;74.02;101735.19;7389548;19;20021;-69
2022/05/26 08:25:29;;;;;;;6.82;1.08;;;;;;;17.35;75.86;101737.16;7387627;19;20018;-66
2022/05/26 08:27:56;;;;;;;5.57;0.50;;;;;;;17.41;75.57;101735.63;7389096;19;20010;-68
2022/05/26 08:30:23;;;;;;;5.65;0.40;;;;;;;17.38;72.52;101728.81;7389960;19;20022;-69
2022/05/26 08:32:55;;;;;;;4.45;0.40;;;;;;;17.42;74.76;101734.63;7393718;19;20194;-69
2022/05/26 08:35:24;;;;;;;6.15;0.47;;;;;;;17.35;72.15;101745.13;7388862;19;20350;-69
2022/05/26 08:37:51;;;;;;;6.13;0.40;;;;;;;17.30;72.81;101750.16;7391995;19;20015;-70
2022/05/26 08:40:30;;;;;;;5.80;1.55;;;;;;;17.30;73.50;101741.34;7387668;19;20029;-68
2022/05/26 08:42:57;;;;;;;3.80;0.32;;;;;;;17.31;74.70;101738.50;7388815;19;20006;-68
2022/05/26 08:45:25;;;;;;;3.78;0.30;;;;;;;17.35;74.02;101745.13;7390387;19;20091;-68
2022/05/26 08:47:51;;;;;;;3.70;0.40;;;;;;;17.39;74.29;101745.59;7389095;19;20110;-67
2022/05/26 08:50:25;;;;;;;3.58;0.43;;;;;;;17.43;73.63;101750.41;7392195;19;20592;-68
2022/05/26 08:53:22;;;;;;;5.05;0.35;;;;;;;17.49;73.44;101755.03;7387428;19;20019;-66
2022/05/26 08:55:51;;;;;;;3.97;0.50;;;;;;;17.45;72.00;101751.06;7388068;19;20097;-68
2022/05/26 08:58:21;;;;;;;3.15;0.40;;;;;;;17.44;73.14;101749.41;7390570;19;20007;-68
2022/05/26 09:00:50;;;;;;;8.07;0.50;;;;;;;17.44;72.77;101751.25;7388154;19;20011;-68
2022/05/26 09:03:24;;;;;;;2.75;0.52;;;;;;;17.44;72.61;101760.06;7391105;19;20402;-70
2022/05/26 09:06:06;;;;;;;8.45;0.50;;;;;;;17.47;73.74;101754.38;7387866;19;20041;-67
2022/05/26 09:14:24;;;;;;;3.83;0.50;;;;;;;17.47;72.76;101759.69;7387868;19;20082;-66
2022/05/26 09:16:58;;;;;;;3.50;0.60;;;;;;;17.46;73.53;101770.53;7392935;19;20428;-68
2022/05/26 09:19:49;;;;;;;5.93;0.95;;;;;;;17.47;73.29;101780.97;7385968;19;20090;-69
2022/05/26 09:22:39;;;;;;;4.70;0.35;;;;;;;17.42;73.80;101766.56;7387969;19;20369;-68
2022/05/26 09:25:11;;;;;;;3.20;0.30;;;;;;;17.39;73.22;101774.88;7384796;19;20021;-69
2022/05/26 09:27:48;;;;;;;3.83;0.32;;;;;;;17.39;72.98;101785.53;7391584;19;20022;-67
2022/05/26 09:30:19;;;;;;;5.18;0.32;;;;;;;17.38;73.51;101766.06;7386585;19;20482;-66
2022/05/26 09:32:47;;;;;;;9.97;1.50;;;;;;;17.40;74.76;101772.06;7387196;19;20010;-67
2022/05/26 09:35:47;;;;;;;4.60;0.50;;;;;;;17.46;75.25;101767.88;7357283;19;20272;-67
2022/05/26 09:38:19;;;;;;;3.70;0.30;;;;;;;17.50;74.33;101767.34;7389070;19;20018;-67
2022/05/26 09:40:47;;;;;;;3.30;0.50;;;;;;;17.52;74.35;101775.97;7388338;19;20023;-68
2022/05/26 09:43:26;;;;;;;5.40;0.63;;;;;;;17.53;73.67;101764.31;7390644;19;20246;-68
2022/05/26 09:46:01;;;;;;;7.18;0.50;;;;;;;17.61;74.45;101773.31;7388270;19;20507;-67
2022/05/26 09:48:35;;;;;;;3.28;0.30;;;;;;;17.66;74.31;101766.47;7386396;19;20014;-67
2022/05/26 09:51:12;;;;;;;6.22;0.43;;;;;;;17.66;73.53;101769.13;7387182;19;20014;-68
2022/05/26 09:53:50;;;;;;;2.55;0.40;;;;;;;17.69;73.80;101778.56;7385798;19;20015;-66
2022/05/26 09:56:31;;;;;;;5.03;0.40;;;;;;;17.72;74.44;101780.91;7388190;19;20006;-68
2022/05/26 09:59:21;;;;;;;5.38;0.38;;;;;;;17.75;73.89;101786.69;7388287;19;20036;-67
2022/05/26 10:02:07;;;;;;;3.78;0.30;;;;;;;17.74;73.17;101782.38;7383540;19;20011;-67
2022/05/26 10:05:02;;;;;;;4.05;0.40;;;;;;;17.79;74.32;101780.00;7384930;19;20490;-68
2022/05/26 10:07:48;;;;;;;5.53;0.40;;;;;;;17.79;73.50;101773.84;7390306;19;20394;-68
2022/05/26 10:10:37;;;;;;;9.95;0.50;;;;;;;17.75;73.16;101777.88;7391347;19;20326;-68
2022/05/26 10:13:15;;;;;;;5.78;0.40;;;;;;;17.74;73.53;101770.88;7393173;19;20033;-69
2022/05/26 10:15:56;;;;;;;4.15;0.38;;;;;;;17.77;73.91;101771.38;7395999;19;20035;-69
2022/05/26 10:18:38;;;;;;;2.88;0.38;;;;;;;17.78;73.91;101767.69;7392765;19;20024;-70
2022/05/26 10:21:37;;;;;;;5.97;0.30;;;;;;;17.78;72.76;101757.03;7389002;19;20018;-68
2022/05/26 10:24:10;;;;;;;2.70;0.52;;;;;;;17.82;73.71;101760.19;7391824;19;20047;-68
2022/05/26 10:26:57;;;;;;;7.68;0.50;;;;;;;17.88;73.40;101759.47;7388802;19;20191;-68
2022/05/26 10:30:00;;;;;;;5.68;0.43;;;;;;;17.89;72.76;101767.28;7395267;19;20006;-70
2022/05/26 10:32:54;;;;;;;4.07;0.40;;;;;;;17.90;72.15;101762.78;7389572;19;20006;-70
2022/05/26 10:35:27;;;;;;;2.95;0.35;;;;;;;17.93;72.43;101755.25;7391274;19;20015;-66
2022/05/26 10:38:05;;;;;;;5.35;0.50;;;;;;;18.01;72.02;101764.22;7391013;19;20351;-69
2022/05/26 10:40:37;;;;;;;3.45;0.28;;;;;;;18.04;70.47;101761.19;7393935;19;20050;-69
2022/05/26 10:43:13;;;;;;;2.92;0.20;;;;;;;18.06;70.35;101757.34;7396446;19;20090;-66
2022/05/26 10:45:47;;;;;;;1.77;0.20;;;;;;;18.13;70.47;101757.47;7390467;19;20014;-68
2022/05/26 10:48:21;;;;;;;4.82;0.30;;;;;;;18.23;70.22;101760.72;7394161;19;20021;-69
2022/05/26 10:51:02;;;;;;;;;;;;;;;18.33;70.96;101756.78;7395608;19;20027;-66
2022/05/26 10:53:40;;;;;;;2.25;0.20;;;;;;;18.38;69.28;101754.41;7389512;19;20512;-72
2022/05/26 10:56:30;;;;;;;1.50;0.10;;;;;;;18.42;69.26;101751.38;7391148;19;20017;-67
2022/05/26 10:59:12;;;;;;;1.38;0.20;;;;;;;18.45;69.00;101751.84;7394608;19;20010;-67
2022/05/26 11:01:55;;;;;;;3.45;0.30;;;;;;;18.49;69.61;101750.44;7392785;19;20015;-67
2022/05/26 11:04:37;;;;;;;1.55;0.20;;;;;;;18.53;69.18;101750.94;7391453;19;20007;-68
2022/05/26 11:07:11;;;;;;;2.97;0.45;;;;;;;18.57;68.73;101749.59;7388352;19;20014;-69
2022/05/26 11:09:46;;;;;;;3.72;0.22;;;;;;;18.58;68.64;101752.09;7391659;19;20074;-66
2022/05/26 11:12:36;;;;;;;4.22;0.28;;;;;;;18.58;68.66;101746.75;7394256;19;20345;-68
2022/05/26 11:18:29;;;;;;;3.25;0.10;;;;;;;18.65;68.09;101736.16;7391128;19;20025;-69
2022/05/26 11:20:58;;;;;;;2.88;0.20;;;;;;;18.67;68.00;101736.81;7392281;19;20017;-67
2022/05/26 11:23:37;;;;;;;2.47;0.28;;;;;;;18.70;68.22;101753.25;7391332;19;20397;-66
2022/05/26 11:26:35;;;;;;;2.28;0.30;;;;;;;18.74;68.26;101738.56;7393736;19;20468;-70
2022/05/26 11:29:14;;;;;;;5.03;0.25;;;;;;;18.81;67.67;101741.31;7393383;19;20011;-68
2022/05/26 11:37:36;;;;;;;3.15;0.20;;;;;;;19.00;67.81;101730.09;7388975;19;20057;-67
2022/05/26 11:40:11;;;;;;;1.13;0.40;;;;;;;19.07;67.70;101735.50;7390898;19;20329;-69
2022/05/26 11:42:40;;;;;;;1.95;0.20;;;;;;;19.09;67.21;101734.31;7389619;19;20007;-67
2022/05/26 11:45:15;;;;;;;1.25;0.20;;;;;;;19.13;67.50;101732.94;7389076;19;20023;-68
2022/05/26 11:47:50;;;;;;;2.80;0.20;;;;;;;19.20;67.31;101730.31;7389820;19;20027;-68
2022/05/26 11:50:49;;;;;;;3.70;0.15;;;;;;;19.24;67.29;101728.97;7392683;19;20414;-68
2022/05/26 11:53:27;;;;;;;3.05;0.20;;;;;;;19.31;66.71;101743.19;7389535;19;20015;-68
2022/05/26 11:56:03;;;;;;;2.00;0.20;;;;;;;19.34;66.35;101734.81;7390929;19;20097;-67
2022/05/26 11:58:44;;;;;;;5.90;0.20;;;;;;;19.36;66.60;101732.78;7389309;19;20023;-68
2022/05/26 12:01:21;;;;;;;1.75;0.20;;;;;;;19.40;66.15;101726.03;7394355;19;20571;-68
2022/05/26 12:03:56;;;;;;;5.43;0.20;;;;;;;19.43;66.09;101731.03;7388842;19;20017;-67
2022/05/26 12:06:34;;;;;;;2.30;0.20;;;;;;;19.48;66.73;101725.97;7387641;19;20015;-68
2022/05/26 12:09:11;;;;;;;0.95;0.10;;;;;;;19.48;65.33;101725.97;7389770;19;20082;-69
2022/05/26 12:12:13;;;;;;;1.73;0.10;;;;;;;19.51;65.46;101727.44;7389839;19;20094;-68
2022/05/26 12:14:46;;;;;;;3.67;0.20;;;;;;;19.56;65.70;101717.84;7385703;19;20014;-67
2022/05/26 12:17:29;;;;;;;3.60;0.50;;;;;;;19.61;65.51;101728.78;7388963;19;20037;-68
2022/05/26 12:20:10;;;;;;;2.75;0.30;;;;;;;19.64;65.92;101723.06;7390112;19;20007;-68
2022/05/26 12:22:52;;;;;;;1.35;0.10;;;;;;;19.65;66.08;101729.25;7388083;19;20015;-68
2022/05/26 12:25:30;;;;;;;1.45;0.20;;;;;;;19.67;66.29;101726.38;7388226;19;20020;-68
2022/05/26 12:28:06;;;;;;;2.47;0.20;;;;;;;19.67;65.66;101734.38;7388595;19;20030;-68
2022/05/26 12:30:39;;;;;;;2.78;0.20;;;;;;;19.66;66.02;101724.72;7388316;19;20011;-70
2022/05/26 12:33:18;;;;;;;1.98;0.20;;;;;;;19.65;65.47;101723.91;7387165;19;21069;-67